sensor_id;sensor_type;location;lat;lon;timestamp;temperature;humidity
5617;DHT22;2830;50.656;7.568;2023-05-10T00:00:25;12.50;99.90
5617;DHT22;2830;50.656;7.568;2023-05-10T00:02:51;12.50;99.90
5617;DHT22;2830;50.656;7.568;2023-05-10T00:05:18;12.50;99.90
5617;DHT22;2830;50.656;7.568;2023-05-10T00:07:45;12.50;99.90
5617;DHT22;2830;50.656;7.568;2023-05-10T00:10:12;12.60;99.90
5617;DHT22;2830;50.656;7.568;2023-05-10T00:12:39;12.60;99.90
5617;DHT22;2830;50.656;7.568;2023-05-10T00:15:06;12.60;99.90
5617;DHT22;2830;50.656;7.568;2023-05-10T00:17:33;12.60;99.90
5617;DHT22;2830;50.656;7.568;2023-05-10T00:20:00;12.60;99.90
5617;DHT22;2830;50.656;7.568;2023-05-10T00:22:26;12.60;99.90
5617;DHT22;2830;50.656;7.568;2023-05-10T00:24:53;12.60;99.90
5617;DHT22;2830;50.656;7.568;2023-05-10T00:27:20;12.60;99.90
5617;DHT22;2830;50.656;7.568;2023-05-10T00:29:46;12.60;99.90
5617;DHT22;2830;50.656;7.568;2023-05-10T00:32:13;12.60;99.90
5617;DHT22;2830;50.656;7.568;2023-05-10T00:34:40;12.60;99.90
5617;DHT22;2830;50.656;7.568;2023-05-10T00:37:07;12.60;99.90
5617;DHT22;2830;50.656;7.568;2023-05-10T00:39:33;12.60;99.90
5617;DHT22;2830;50.656;7.568;2023-05-10T00:42:00;12.60;99.90
5617;DHT22;2830;50.656;7.568;2023-05-10T00:44:27;12.60;99.90
5617;DHT22;2830;50.656;7.568;2023-05-10T00:46:53;12.60;99.90
5617;DHT22;2830;50.656;7.568;2023-05-10T00:49:20;12.60;99.90
5617;DHT22;2830;50.656;7.568;2023-05-10T00:51:47;12.60;99.90
5617;DHT22;2830;50.656;7.568;2023-05-10T00:54:15;12.50;99.90
5617;DHT22;2830;50.656;7.568;2023-05-10T00:56:42;12.50;99.90
5617;DHT22;2830;50.656;7.568;2023-05-10T00:59:18;12.50;99.90
5617;DHT22;2830;50.656;7.568;2023-05-10T01:01:45;12.50;99.90
5617;DHT22;2830;50.656;7.568;2023-05-10T01:04:13;12.50;99.90
5617;DHT22;2830;50.656;7.568;2023-05-10T01:06:41;12.50;99.90
5617;DHT22;2830;50.656;7.568;2023-05-10T01:09:08;12.50;99.90
5617;DHT22;2830;50.656;7.568;2023-05-10T01:11:35;12.50;99.90
5617;DHT22;2830;50.656;7.568;2023-05-10T01:14:03;12.50;99.90
5617;DHT22;2830;50.656;7.568;2023-05-10T01:16:33;12.40;99.90
5617;DHT22;2830;50.656;7.568;2023-05-10T01:19:01;12.40;99.90
5617;DHT22;2830;50.656;7.568;2023-05-10T01:21:53;12.30;99.90
5617;DHT22;2830;50.656;7.568;2023-05-10T01:24:40;12.20;99.90
5617;DHT22;2830;50.656;7.568;2023-05-10T01:35:47;12.20;99.90
5617;DHT22;2830;50.656;7.568;2023-05-10T01:41:14;12.20;99.90
5617;DHT22;2830;50.656;7.568;2023-05-10T01:46:37;12.30;99.90
5617;DHT22;2830;50.656;7.568;2023-05-10T01:49:10;12.30;99.90
5617;DHT22;2830;50.656;7.568;2023-05-10T01:51:44;12.30;99.90
5617;DHT22;2830;50.656;7.568;2023-05-10T01:54:13;12.40;99.90
5617;DHT22;2830;50.656;7.568;2023-05-10T01:56:41;12.40;99.90
5617;DHT22;2830;50.656;7.568;2023-05-10T01:59:12;12.40;99.90
5617;DHT22;2830;50.656;7.568;2023-05-10T02:01:40;12.30;99.90
5617;DHT22;2830;50.656;7.568;2023-05-10T02:04:08;12.40;99.90
5617;DHT22;2830;50.656;7.568;2023-05-10T02:06:38;12.30;99.90
5617;DHT22;2830;50.656;7.568;2023-05-10T02:09:06;12.30;99.90
5617;DHT22;2830;50.656;7.568;2023-05-10T02:11:33;12.30;99.90
5617;DHT22;2830;50.656;7.568;2023-05-10T02:14:00;12.30;99.90
5617;DHT22;2830;50.656;7.568;2023-05-10T02:16:28;12.40;99.90
5617;DHT22;2830;50.656;7.568;2023-05-10T02:18:58;12.40;99.90
5617;DHT22;2830;50.656;7.568;2023-05-10T02:21:26;12.40;99.90
5617;DHT22;2830;50.656;7.568;2023-05-10T02:23:54;12.40;99.90
5617;DHT22;2830;50.656;7.568;2023-05-10T02:26:23;12.30;99.90
5617;DHT22;2830;50.656;7.568;2023-05-10T02:28:53;12.30;99.90
5617;DHT22;2830;50.656;7.568;2023-05-10T02:31:20;12.30;99.90
5617;DHT22;2830;50.656;7.568;2023-05-10T02:33:48;12.20;99.90
5617;DHT22;2830;50.656;7.568;2023-05-10T02:36:15;12.30;99.90
5617;DHT22;2830;50.656;7.568;2023-05-10T02:38:43;12.20;99.90
5617;DHT22;2830;50.656;7.568;2023-05-10T02:41:11;12.30;99.90
5617;DHT22;2830;50.656;7.568;2023-05-10T02:43:39;12.20;99.90
5617;DHT22;2830;50.656;7.568;2023-05-10T02:46:07;12.20;99.90
5617;DHT22;2830;50.656;7.568;2023-05-10T02:48:33;12.10;99.90
5617;DHT22;2830;50.656;7.568;2023-05-10T02:51:04;12.10;99.90
5617;DHT22;2830;50.656;7.568;2023-05-10T02:53:34;12.10;99.90
5617;DHT22;2830;50.656;7.568;2023-05-10T02:56:13;12.10;99.90
5617;DHT22;2830;50.656;7.568;2023-05-10T02:58:41;12.10;99.90
5617;DHT22;2830;50.656;7.568;2023-05-10T03:01:08;12.20;99.90
5617;DHT22;2830;50.656;7.568;2023-05-10T03:03:35;12.20;99.90
5617;DHT22;2830;50.656;7.568;2023-05-10T03:06:01;12.20;99.90
5617;DHT22;2830;50.656;7.568;2023-05-10T03:08:28;12.30;99.90
5617;DHT22;2830;50.656;7.568;2023-05-10T03:13:56;12.20;99.90
5617;DHT22;2830;50.656;7.568;2023-05-10T03:16:28;12.20;99.90
5617;DHT22;2830;50.656;7.568;2023-05-10T03:19:17;12.20;99.90
5617;DHT22;2830;50.656;7.568;2023-05-10T03:21:50;12.10;99.90
5617;DHT22;2830;50.656;7.568;2023-05-10T03:24:20;12.20;99.90
5617;DHT22;2830;50.656;7.568;2023-05-10T03:26:48;12.20;99.90
5617;DHT22;2830;50.656;7.568;2023-05-10T03:29:16;12.20;99.90
5617;DHT22;2830;50.656;7.568;2023-05-10T03:31:43;12.20;99.90
5617;DHT22;2830;50.656;7.568;2023-05-10T03:34:10;12.20;99.90
5617;DHT22;2830;50.656;7.568;2023-05-10T03:36:37;12.20;99.90
5617;DHT22;2830;50.656;7.568;2023-05-10T03:39:04;12.20;99.90
5617;DHT22;2830;50.656;7.568;2023-05-10T03:41:31;12.10;99.90
5617;DHT22;2830;50.656;7.568;2023-05-10T03:43:57;12.10;99.90
5617;DHT22;2830;50.656;7.568;2023-05-10T03:46:24;12.10;99.90
5617;DHT22;2830;50.656;7.568;2023-05-10T03:48:50;12.10;99.90
5617;DHT22;2830;50.656;7.568;2023-05-10T03:51:17;12.10;99.90
5617;DHT22;2830;50.656;7.568;2023-05-10T03:53:44;12.10;99.90
5617;DHT22;2830;50.656;7.568;2023-05-10T03:56:11;12.10;99.90
5617;DHT22;2830;50.656;7.568;2023-05-10T03:58:37;12.10;99.90
5617;DHT22;2830;50.656;7.568;2023-05-10T04:01:04;12.10;99.90
5617;DHT22;2830;50.656;7.568;2023-05-10T04:03:31;12.10;99.90
5617;DHT22;2830;50.656;7.568;2023-05-10T04:06:01;12.10;99.90
5617;DHT22;2830;50.656;7.568;2023-05-10T04:08:28;12.10;99.90
5617;DHT22;2830;50.656;7.568;2023-05-10T04:11:05;12.10;99.90
5617;DHT22;2830;50.656;7.568;2023-05-10T04:13:32;12.10;99.90
5617;DHT22;2830;50.656;7.568;2023-05-10T04:15:59;12.10;99.90
5617;DHT22;2830;50.656;7.568;2023-05-10T04:18:26;12.10;99.90
5617;DHT22;2830;50.656;7.568;2023-05-10T04:20:52;12.10;99.90
5617;DHT22;2830;50.656;7.568;2023-05-10T04:23:19;12.10;99.90
5617;DHT22;2830;50.656;7.568;2023-05-10T04:25:46;12.20;99.90
5617;DHT22;2830;50.656;7.568;2023-05-10T04:28:12;12.20;99.90
5617;DHT22;2830;50.656;7.568;2023-05-10T04:30:39;12.20;99.90
5617;DHT22;2830;50.656;7.568;2023-05-10T04:33:06;12.30;99.90
5617;DHT22;2830;50.656;7.568;2023-05-10T04:35:34;12.30;99.90
5617;DHT22;2830;50.656;7.568;2023-05-10T04:38:01;12.30;99.90
5617;DHT22;2830;50.656;7.568;2023-05-10T04:40:27;12.30;99.90
5617;DHT22;2830;50.656;7.568;2023-05-10T04:42:54;12.30;99.90
5617;DHT22;2830;50.656;7.568;2023-05-10T04:45:21;12.30;99.90
5617;DHT22;2830;50.656;7.568;2023-05-10T04:47:47;12.40;99.90
5617;DHT22;2830;50.656;7.568;2023-05-10T04:50:14;12.40;99.90
5617;DHT22;2830;50.656;7.568;2023-05-10T04:52:41;12.40;99.90
5617;DHT22;2830;50.656;7.568;2023-05-10T04:55:08;12.40;99.90
5617;DHT22;2830;50.656;7.568;2023-05-10T04:57:36;12.40;99.90
5617;DHT22;2830;50.656;7.568;2023-05-10T05:00:03;12.50;99.90
5617;DHT22;2830;50.656;7.568;2023-05-10T05:02:30;12.50;99.90
5617;DHT22;2830;50.656;7.568;2023-05-10T05:04:57;12.50;99.90
5617;DHT22;2830;50.656;7.568;2023-05-10T05:07:24;12.50;99.90
5617;DHT22;2830;50.656;7.568;2023-05-10T05:09:50;12.50;99.90
5617;DHT22;2830;50.656;7.568;2023-05-10T05:12:17;12.40;99.90
5617;DHT22;2830;50.656;7.568;2023-05-10T05:14:44;12.40;99.90
5617;DHT22;2830;50.656;7.568;2023-05-10T05:17:10;12.40;99.90
5617;DHT22;2830;50.656;7.568;2023-05-10T05:19:37;12.40;99.90
5617;DHT22;2830;50.656;7.568;2023-05-10T05:22:06;12.40;99.90
5617;DHT22;2830;50.656;7.568;2023-05-10T05:24:36;12.50;99.90
5617;DHT22;2830;50.656;7.568;2023-05-10T05:27:06;12.50;99.90
5617;DHT22;2830;50.656;7.568;2023-05-10T05:29:32;12.50;99.90
5617;DHT22;2830;50.656;7.568;2023-05-10T05:31:59;12.60;99.90
5617;DHT22;2830;50.656;7.568;2023-05-10T05:34:26;12.60;99.90
5617;DHT22;2830;50.656;7.568;2023-05-10T05:36:53;12.70;99.90
5617;DHT22;2830;50.656;7.568;2023-05-10T05:39:20;12.70;99.90
5617;DHT22;2830;50.656;7.568;2023-05-10T05:41:47;12.70;99.90
5617;DHT22;2830;50.656;7.568;2023-05-10T05:44:13;12.80;99.90
5617;DHT22;2830;50.656;7.568;2023-05-10T05:46:40;12.70;99.90
5617;DHT22;2830;50.656;7.568;2023-05-10T05:49:06;12.70;99.90
5617;DHT22;2830;50.656;7.568;2023-05-10T05:51:33;12.70;99.90
5617;DHT22;2830;50.656;7.568;2023-05-10T05:54:01;12.80;99.90
5617;DHT22;2830;50.656;7.568;2023-05-10T05:56:28;12.70;99.90
5617;DHT22;2830;50.656;7.568;2023-05-10T05:58:54;12.80;99.90
5617;DHT22;2830;50.656;7.568;2023-05-10T06:01:21;12.90;99.90
5617;DHT22;2830;50.656;7.568;2023-05-10T06:03:47;12.80;99.90
5617;DHT22;2830;50.656;7.568;2023-05-10T06:06:17;12.90;99.90
5617;DHT22;2830;50.656;7.568;2023-05-10T06:08:43;12.80;99.90
5617;DHT22;2830;50.656;7.568;2023-05-10T06:11:10;12.80;99.90
5617;DHT22;2830;50.656;7.568;2023-05-10T06:13:37;12.80;99.90
5617;DHT22;2830;50.656;7.568;2023-05-10T06:16:03;12.90;99.90
5617;DHT22;2830;50.656;7.568;2023-05-10T06:18:30;12.90;99.90
5617;DHT22;2830;50.656;7.568;2023-05-10T06:20:57;12.90;99.90
5617;DHT22;2830;50.656;7.568;2023-05-10T06:23:24;13.00;99.90
5617;DHT22;2830;50.656;7.568;2023-05-10T06:25:52;13.00;99.90
5617;DHT22;2830;50.656;7.568;2023-05-10T06:28:19;13.10;99.90
5617;DHT22;2830;50.656;7.568;2023-05-10T06:30:45;13.10;99.90
5617;DHT22;2830;50.656;7.568;2023-05-10T06:33:12;13.20;99.90
5617;DHT22;2830;50.656;7.568;2023-05-10T06:35:39;13.30;99.90
5617;DHT22;2830;50.656;7.568;2023-05-10T06:38:06;13.50;99.90
5617;DHT22;2830;50.656;7.568;2023-05-10T06:40:32;13.50;99.90
5617;DHT22;2830;50.656;7.568;2023-05-10T06:43:00;13.50;99.90
5617;DHT22;2830;50.656;7.568;2023-05-10T06:45:26;13.50;99.90
5617;DHT22;2830;50.656;7.568;2023-05-10T06:47:53;13.60;99.90
5617;DHT22;2830;50.656;7.568;2023-05-10T06:50:20;13.60;99.90
5617;DHT22;2830;50.656;7.568;2023-05-10T06:52:46;13.60;99.90
5617;DHT22;2830;50.656;7.568;2023-05-10T06:55:13;13.70;99.90
5617;DHT22;2830;50.656;7.568;2023-05-10T06:57:40;13.70;99.90
5617;DHT22;2830;50.656;7.568;2023-05-10T07:00:07;13.80;99.90
5617;DHT22;2830;50.656;7.568;2023-05-10T07:02:36;13.80;99.90
5617;DHT22;2830;50.656;7.568;2023-05-10T07:05:03;13.80;99.90
5617;DHT22;2830;50.656;7.568;2023-05-10T07:07:29;13.80;99.90
5617;DHT22;2830;50.656;7.568;2023-05-10T07:09:56;13.90;99.90
5617;DHT22;2830;50.656;7.568;2023-05-10T07:12:24;13.90;99.90
5617;DHT22;2830;50.656;7.568;2023-05-10T07:14:51;14.00;99.90
5617;DHT22;2830;50.656;7.568;2023-05-10T07:17:17;14.10;99.90
5617;DHT22;2830;50.656;7.568;2023-05-10T07:19:44;14.10;99.90
5617;DHT22;2830;50.656;7.568;2023-05-10T07:22:11;14.10;99.90
5617;DHT22;2830;50.656;7.568;2023-05-10T07:24:38;14.20;99.90
5617;DHT22;2830;50.656;7.568;2023-05-10T07:27:05;14.30;99.90
5617;DHT22;2830;50.656;7.568;2023-05-10T07:29:32;14.30;99.90
5617;DHT22;2830;50.656;7.568;2023-05-10T07:31:58;14.40;99.90
5617;DHT22;2830;50.656;7.568;2023-05-10T07:34:25;14.40;99.90
5617;DHT22;2830;50.656;7.568;2023-05-10T07:36:52;14.50;99.90
5617;DHT22;2830;50.656;7.568;2023-05-10T07:39:19;14.60;99.90
5617;DHT22;2830;50.656;7.568;2023-05-10T07:41:53;14.60;99.90
5617;DHT22;2830;50.656;7.568;2023-05-10T07:44:20;14.30;99.90
5617;DHT22;2830;50.656;7.568;2023-05-10T07:46:47;14.30;99.90
5617;DHT22;2830;50.656;7.568;2023-05-10T07:49:14;14.20;99.90
5617;DHT22;2830;50.656;7.568;2023-05-10T07:51:41;14.20;99.90
5617;DHT22;2830;50.656;7.568;2023-05-10T07:54:09;14.20;99.90
5617;DHT22;2830;50.656;7.568;2023-05-10T07:56:35;14.30;99.90
5617;DHT22;2830;50.656;7.568;2023-05-10T07:59:03;14.50;99.90
5617;DHT22;2830;50.656;7.568;2023-05-10T08:01:34;14.60;99.90
5617;DHT22;2830;50.656;7.568;2023-05-10T08:04:02;14.70;99.90
5617;DHT22;2830;50.656;7.568;2023-05-10T08:06:29;14.90;99.90
5617;DHT22;2830;50.656;7.568;2023-05-10T08:08:57;14.90;99.90
5617;DHT22;2830;50.656;7.568;2023-05-10T08:11:23;14.90;99.90
5617;DHT22;2830;50.656;7.568;2023-05-10T08:13:52;14.80;99.90
5617;DHT22;2830;50.656;7.568;2023-05-10T08:16:20;14.70;99.90
5617;DHT22;2830;50.656;7.568;2023-05-10T08:18:47;14.50;99.90
5617;DHT22;2830;50.656;7.568;2023-05-10T08:21:15;14.40;99.90
5617;DHT22;2830;50.656;7.568;2023-05-10T08:23:43;14.30;99.90
5617;DHT22;2830;50.656;7.568;2023-05-10T08:26:10;14.30;99.90
5617;DHT22;2830;50.656;7.568;2023-05-10T08:28:37;14.10;99.90
5617;DHT22;2830;50.656;7.568;2023-05-10T08:31:05;14.00;99.90
5617;DHT22;2830;50.656;7.568;2023-05-10T08:33:31;13.90;99.90
5617;DHT22;2830;50.656;7.568;2023-05-10T08:35:58;13.70;99.90
5617;DHT22;2830;50.656;7.568;2023-05-10T08:38:25;13.70;99.90
5617;DHT22;2830;50.656;7.568;2023-05-10T08:40:54;13.70;99.90
5617;DHT22;2830;50.656;7.568;2023-05-10T08:43:29;13.80;99.90
5617;DHT22;2830;50.656;7.568;2023-05-10T08:45:56;13.90;99.90
5617;DHT22;2830;50.656;7.568;2023-05-10T08:48:27;14.00;99.90
5617;DHT22;2830;50.656;7.568;2023-05-10T08:50:57;14.00;99.90
5617;DHT22;2830;50.656;7.568;2023-05-10T08:53:24;14.00;99.90
5617;DHT22;2830;50.656;7.568;2023-05-10T08:55:53;14.20;99.90
5617;DHT22;2830;50.656;7.568;2023-05-10T08:58:20;14.40;99.90
5617;DHT22;2830;50.656;7.568;2023-05-10T09:00:49;14.40;99.90
5617;DHT22;2830;50.656;7.568;2023-05-10T09:03:19;14.50;99.90
5617;DHT22;2830;50.656;7.568;2023-05-10T09:05:46;14.60;99.90
5617;DHT22;2830;50.656;7.568;2023-05-10T09:08:13;14.60;99.90
5617;DHT22;2830;50.656;7.568;2023-05-10T09:10:43;14.70;99.90
5617;DHT22;2830;50.656;7.568;2023-05-10T09:13:11;14.90;99.90
5617;DHT22;2830;50.656;7.568;2023-05-10T09:15:40;15.10;99.90
5617;DHT22;2830;50.656;7.568;2023-05-10T09:18:07;15.10;99.90
5617;DHT22;2830;50.656;7.568;2023-05-10T09:20:34;15.20;99.90
5617;DHT22;2830;50.656;7.568;2023-05-10T09:23:00;15.30;99.90
5617;DHT22;2830;50.656;7.568;2023-05-10T09:25:27;15.20;99.90
5617;DHT22;2830;50.656;7.568;2023-05-10T09:27:54;15.30;99.90
5617;DHT22;2830;50.656;7.568;2023-05-10T09:30:26;15.20;99.90
5617;DHT22;2830;50.656;7.568;2023-05-10T09:32:54;15.10;99.90
5617;DHT22;2830;50.656;7.568;2023-05-10T09:35:23;14.90;99.90
5617;DHT22;2830;50.656;7.568;2023-05-10T09:37:57;14.70;99.90
5617;DHT22;2830;50.656;7.568;2023-05-10T09:40:27;14.50;99.90
5617;DHT22;2830;50.656;7.568;2023-05-10T09:45:29;14.90;99.90
5617;DHT22;2830;50.656;7.568;2023-05-10T09:47:57;15.50;99.90
5617;DHT22;2830;50.656;7.568;2023-05-10T09:50:24;16.40;99.90
5617;DHT22;2830;50.656;7.568;2023-05-10T09:55:37;17.00;99.90
5617;DHT22;2830;50.656;7.568;2023-05-10T09:58:04;17.00;99.90
5617;DHT22;2830;50.656;7.568;2023-05-10T10:00:45;16.50;99.90
5617;DHT22;2830;50.656;7.568;2023-05-10T10:03:15;16.20;99.90
5617;DHT22;2830;50.656;7.568;2023-05-10T10:05:43;15.00;99.90
5617;DHT22;2830;50.656;7.568;2023-05-10T10:08:10;14.30;99.90
5617;DHT22;2830;50.656;7.568;2023-05-10T10:10:38;14.10;99.90
5617;DHT22;2830;50.656;7.568;2023-05-10T10:13:07;13.80;99.90
5617;DHT22;2830;50.656;7.568;2023-05-10T10:15:34;13.70;99.90
5617;DHT22;2830;50.656;7.568;2023-05-10T10:18:01;13.70;99.90
5617;DHT22;2830;50.656;7.568;2023-05-10T10:20:30;13.60;99.90
5617;DHT22;2830;50.656;7.568;2023-05-10T10:22:57;13.60;99.90
5617;DHT22;2830;50.656;7.568;2023-05-10T10:25:24;13.60;99.90
5617;DHT22;2830;50.656;7.568;2023-05-10T10:30:46;13.80;99.90
5617;DHT22;2830;50.656;7.568;2023-05-10T10:36:08;13.90;99.90
5617;DHT22;2830;50.656;7.568;2023-05-10T10:41:38;14.10;99.90
5617;DHT22;2830;50.656;7.568;2023-05-10T10:47:05;14.40;99.90
5617;DHT22;2830;50.656;7.568;2023-05-10T10:49:37;14.40;99.90
5617;DHT22;2830;50.656;7.568;2023-05-10T10:54:40;14.70;99.90
5617;DHT22;2830;50.656;7.568;2023-05-10T10:57:12;15.00;99.90
5617;DHT22;2830;50.656;7.568;2023-05-10T10:59:43;15.30;99.90
5617;DHT22;2830;50.656;7.568;2023-05-10T11:07:58;16.40;99.90
5617;DHT22;2830;50.656;7.568;2023-05-10T11:10:25;16.60;99.90
5617;DHT22;2830;50.656;7.568;2023-05-10T11:13:00;16.90;99.90
5617;DHT22;2830;50.656;7.568;2023-05-10T11:15:36;17.20;99.90
5617;DHT22;2830;50.656;7.568;2023-05-10T11:18:36;17.30;99.90
5617;DHT22;2830;50.656;7.568;2023-05-10T11:21:04;17.60;99.90
5617;DHT22;2830;50.656;7.568;2023-05-10T11:23:57;17.90;99.90
5617;DHT22;2830;50.656;7.568;2023-05-10T11:26:29;17.90;99.90
5617;DHT22;2830;50.656;7.568;2023-05-10T11:28:56;17.80;99.90
5617;DHT22;2830;50.656;7.568;2023-05-10T11:31:23;17.80;99.90
5617;DHT22;2830;50.656;7.568;2023-05-10T11:33:52;17.70;99.90
5617;DHT22;2830;50.656;7.568;2023-05-10T11:36:27;17.60;99.90
5617;DHT22;2830;50.656;7.568;2023-05-10T11:38:56;17.10;99.90
5617;DHT22;2830;50.656;7.568;2023-05-10T11:41:24;17.00;99.90
5617;DHT22;2830;50.656;7.568;2023-05-10T11:43:52;17.00;99.90
5617;DHT22;2830;50.656;7.568;2023-05-10T11:46:22;17.20;99.90
5617;DHT22;2830;50.656;7.568;2023-05-10T11:48:51;17.30;99.90
5617;DHT22;2830;50.656;7.568;2023-05-10T11:51:24;17.10;99.90
5617;DHT22;2830;50.656;7.568;2023-05-10T11:53:53;16.80;99.90
5617;DHT22;2830;50.656;7.568;2023-05-10T11:56:20;16.60;99.90
5617;DHT22;2830;50.656;7.568;2023-05-10T11:58:55;16.30;99.90
5617;DHT22;2830;50.656;7.568;2023-05-10T12:01:26;15.70;99.90
5617;DHT22;2830;50.656;7.568;2023-05-10T12:03:55;15.50;99.90
5617;DHT22;2830;50.656;7.568;2023-05-10T12:06:32;15.20;99.90
5617;DHT22;2830;50.656;7.568;2023-05-10T12:09:06;15.00;99.90
5617;DHT22;2830;50.656;7.568;2023-05-10T12:11:38;14.80;99.90
5617;DHT22;2830;50.656;7.568;2023-05-10T12:14:09;14.60;99.90
5617;DHT22;2830;50.656;7.568;2023-05-10T12:16:37;14.40;99.90
5617;DHT22;2830;50.656;7.568;2023-05-10T12:19:11;14.20;99.90
5617;DHT22;2830;50.656;7.568;2023-05-10T12:21:38;14.10;99.90
5617;DHT22;2830;50.656;7.568;2023-05-10T12:24:05;14.20;99.90
5617;DHT22;2830;50.656;7.568;2023-05-10T12:26:32;14.30;99.90
5617;DHT22;2830;50.656;7.568;2023-05-10T12:29:14;14.30;99.90
5617;DHT22;2830;50.656;7.568;2023-05-10T12:31:56;14.40;99.90
5617;DHT22;2830;50.656;7.568;2023-05-10T12:36:52;14.70;99.90
5617;DHT22;2830;50.656;7.568;2023-05-10T12:39:19;14.80;99.90
5617;DHT22;2830;50.656;7.568;2023-05-10T12:41:46;14.90;99.90
5617;DHT22;2830;50.656;7.568;2023-05-10T12:44:13;15.00;99.90
5617;DHT22;2830;50.656;7.568;2023-05-10T12:46:39;15.20;99.90
5617;DHT22;2830;50.656;7.568;2023-05-10T12:49:06;15.40;99.90
5617;DHT22;2830;50.656;7.568;2023-05-10T12:51:35;15.60;99.90
5617;DHT22;2830;50.656;7.568;2023-05-10T12:54:02;15.80;99.90
5617;DHT22;2830;50.656;7.568;2023-05-10T12:56:29;16.00;99.90
5617;DHT22;2830;50.656;7.568;2023-05-10T12:58:56;16.20;99.90
5617;DHT22;2830;50.656;7.568;2023-05-10T13:01:23;16.40;99.90
5617;DHT22;2830;50.656;7.568;2023-05-10T13:03:49;16.70;99.90
5617;DHT22;2830;50.656;7.568;2023-05-10T13:06:16;16.90;99.90
5617;DHT22;2830;50.656;7.568;2023-05-10T13:08:43;17.10;99.90
5617;DHT22;2830;50.656;7.568;2023-05-10T13:11:10;17.60;99.90
5617;DHT22;2830;50.656;7.568;2023-05-10T13:13:36;18.30;99.90
5617;DHT22;2830;50.656;7.568;2023-05-10T13:16:03;18.60;99.70
5617;DHT22;2830;50.656;7.568;2023-05-10T13:18:30;18.80;99.60
5617;DHT22;2830;50.656;7.568;2023-05-10T13:20:57;18.80;98.90
5617;DHT22;2830;50.656;7.568;2023-05-10T13:23:23;18.70;96.60
5617;DHT22;2830;50.656;7.568;2023-05-10T13:25:50;18.80;97.90
5617;DHT22;2830;50.656;7.568;2023-05-10T13:28:17;18.60;97.90
5617;DHT22;2830;50.656;7.568;2023-05-10T13:30:43;18.60;99.80
5617;DHT22;2830;50.656;7.568;2023-05-10T13:33:10;18.50;96.90
5617;DHT22;2830;50.656;7.568;2023-05-10T13:35:37;18.30;97.80
5617;DHT22;2830;50.656;7.568;2023-05-10T13:38:03;18.30;98.40
5617;DHT22;2830;50.656;7.568;2023-05-10T13:40:30;18.10;98.40
5617;DHT22;2830;50.656;7.568;2023-05-10T13:42:57;17.90;99.70
5617;DHT22;2830;50.656;7.568;2023-05-10T13:45:23;17.70;99.90
5617;DHT22;2830;50.656;7.568;2023-05-10T13:47:50;17.50;99.90
5617;DHT22;2830;50.656;7.568;2023-05-10T13:50:18;17.20;99.90
5617;DHT22;2830;50.656;7.568;2023-05-10T13:52:45;17.00;99.90
5617;DHT22;2830;50.656;7.568;2023-05-10T13:55:12;16.90;99.90
5617;DHT22;2830;50.656;7.568;2023-05-10T13:57:39;16.50;99.90
5617;DHT22;2830;50.656;7.568;2023-05-10T14:00:06;16.30;99.90
5617;DHT22;2830;50.656;7.568;2023-05-10T14:02:34;16.10;99.90
5617;DHT22;2830;50.656;7.568;2023-05-10T14:05:00;15.70;99.90
5617;DHT22;2830;50.656;7.568;2023-05-10T14:07:27;15.40;99.90
5617;DHT22;2830;50.656;7.568;2023-05-10T14:09:54;15.20;99.90
5617;DHT22;2830;50.656;7.568;2023-05-10T14:12:21;15.10;99.90
5617;DHT22;2830;50.656;7.568;2023-05-10T14:14:47;15.00;99.90
5617;DHT22;2830;50.656;7.568;2023-05-10T14:17:14;15.00;99.90
5617;DHT22;2830;50.656;7.568;2023-05-10T14:19:41;15.00;99.90
5617;DHT22;2830;50.656;7.568;2023-05-10T14:22:07;14.90;99.90
5617;DHT22;2830;50.656;7.568;2023-05-10T14:24:34;14.80;99.90
5617;DHT22;2830;50.656;7.568;2023-05-10T14:27:01;14.80;99.90
5617;DHT22;2830;50.656;7.568;2023-05-10T14:29:27;14.80;99.90
5617;DHT22;2830;50.656;7.568;2023-05-10T14:31:54;14.70;99.90
5617;DHT22;2830;50.656;7.568;2023-05-10T14:34:21;14.70;99.90
5617;DHT22;2830;50.656;7.568;2023-05-10T14:36:47;14.60;99.90
5617;DHT22;2830;50.656;7.568;2023-05-10T14:39:14;14.60;99.90
5617;DHT22;2830;50.656;7.568;2023-05-10T14:41:41;14.50;99.90
5617;DHT22;2830;50.656;7.568;2023-05-10T14:44:09;14.50;99.90
5617;DHT22;2830;50.656;7.568;2023-05-10T14:46:36;14.40;99.90
5617;DHT22;2830;50.656;7.568;2023-05-10T14:49:03;14.30;99.90
5617;DHT22;2830;50.656;7.568;2023-05-10T14:51:29;14.20;99.90
5617;DHT22;2830;50.656;7.568;2023-05-10T14:53:56;14.10;99.90
5617;DHT22;2830;50.656;7.568;2023-05-10T14:56:23;14.10;99.90
5617;DHT22;2830;50.656;7.568;2023-05-10T14:58:50;14.10;99.90
5617;DHT22;2830;50.656;7.568;2023-05-10T15:01:17;14.20;99.90
5617;DHT22;2830;50.656;7.568;2023-05-10T15:03:44;14.30;99.90
5617;DHT22;2830;50.656;7.568;2023-05-10T15:06:13;14.40;99.90
5617;DHT22;2830;50.656;7.568;2023-05-10T15:08:41;14.50;99.90
5617;DHT22;2830;50.656;7.568;2023-05-10T15:11:08;14.70;99.90
5617;DHT22;2830;50.656;7.568;2023-05-10T15:13:34;14.70;99.90
5617;DHT22;2830;50.656;7.568;2023-05-10T15:16:01;14.70;99.90
5617;DHT22;2830;50.656;7.568;2023-05-10T15:18:28;14.70;99.90
5617;DHT22;2830;50.656;7.568;2023-05-10T15:20:54;14.70;99.90
5617;DHT22;2830;50.656;7.568;2023-05-10T15:23:21;14.80;99.90
5617;DHT22;2830;50.656;7.568;2023-05-10T15:25:48;14.90;99.90
5617;DHT22;2830;50.656;7.568;2023-05-10T15:28:16;15.00;99.90
5617;DHT22;2830;50.656;7.568;2023-05-10T15:30:43;15.00;99.90
5617;DHT22;2830;50.656;7.568;2023-05-10T15:33:10;15.10;99.90
5617;DHT22;2830;50.656;7.568;2023-05-10T15:35:37;15.10;99.90
5617;DHT22;2830;50.656;7.568;2023-05-10T15:38:05;15.00;99.90
5617;DHT22;2830;50.656;7.568;2023-05-10T15:40:32;15.00;99.90
5617;DHT22;2830;50.656;7.568;2023-05-10T15:42:59;14.90;99.90
5617;DHT22;2830;50.656;7.568;2023-05-10T15:45:25;15.00;99.90
5617;DHT22;2830;50.656;7.568;2023-05-10T15:47:52;15.00;99.90
5617;DHT22;2830;50.656;7.568;2023-05-10T15:50:19;15.10;99.90
5617;DHT22;2830;50.656;7.568;2023-05-10T15:52:46;14.90;99.90
5617;DHT22;2830;50.656;7.568;2023-05-10T15:55:13;14.90;99.90
5617;DHT22;2830;50.656;7.568;2023-05-10T15:57:41;14.90;99.90
5617;DHT22;2830;50.656;7.568;2023-05-10T16:00:09;15.00;99.90
5617;DHT22;2830;50.656;7.568;2023-05-10T16:02:36;15.20;99.90
5617;DHT22;2830;50.656;7.568;2023-05-10T16:05:03;15.20;99.90
5617;DHT22;2830;50.656;7.568;2023-05-10T16:07:30;15.40;99.90
5617;DHT22;2830;50.656;7.568;2023-05-10T16:09:56;15.20;99.90
5617;DHT22;2830;50.656;7.568;2023-05-10T16:12:23;15.20;99.90
5617;DHT22;2830;50.656;7.568;2023-05-10T16:14:51;15.20;99.90
5617;DHT22;2830;50.656;7.568;2023-05-10T16:17:17;15.30;99.90
5617;DHT22;2830;50.656;7.568;2023-05-10T16:19:45;15.40;99.90
5617;DHT22;2830;50.656;7.568;2023-05-10T16:22:13;15.50;99.90
5617;DHT22;2830;50.656;7.568;2023-05-10T16:24:40;15.60;99.90
5617;DHT22;2830;50.656;7.568;2023-05-10T16:27:07;15.80;99.90
5617;DHT22;2830;50.656;7.568;2023-05-10T16:29:34;16.00;99.90
5617;DHT22;2830;50.656;7.568;2023-05-10T16:32:01;15.90;99.90
5617;DHT22;2830;50.656;7.568;2023-05-10T16:34:27;16.00;99.90
5617;DHT22;2830;50.656;7.568;2023-05-10T16:36:54;15.90;99.90
5617;DHT22;2830;50.656;7.568;2023-05-10T16:39:21;15.80;99.90
5617;DHT22;2830;50.656;7.568;2023-05-10T16:41:47;15.70;99.90
5617;DHT22;2830;50.656;7.568;2023-05-10T16:44:14;15.70;99.90
5617;DHT22;2830;50.656;7.568;2023-05-10T16:46:40;15.70;99.90
5617;DHT22;2830;50.656;7.568;2023-05-10T16:49:07;15.70;99.90
5617;DHT22;2830;50.656;7.568;2023-05-10T16:51:34;15.70;99.90